createdAt,value
2022-12-25T00:00:20.924Z,9.80
2022-12-25T00:03:09.797Z,8.30
2022-12-25T00:05:39.284Z,9.90
2022-12-25T00:08:07.293Z,12.20
2022-12-25T00:10:41.359Z,15.00
2022-12-25T00:13:12.959Z,12.50
2022-12-25T00:15:41.957Z,11.30
2022-12-25T00:18:10.051Z,12.70
2022-12-25T00:20:38.118Z,10.40
2022-12-25T00:23:06.061Z,12.60
2022-12-25T00:25:33.953Z,9.60
2022-12-25T00:28:01.822Z,10.20
2022-12-25T00:30:29.796Z,11.10
2022-12-25T00:32:57.701Z,10.20
2022-12-25T00:35:25.669Z,9.60
2022-12-25T00:37:53.659Z,11.90
2022-12-25T00:40:21.556Z,10.50
2022-12-25T00:42:50.167Z,10.60
2022-12-25T00:45:18.018Z,10.30
2022-12-25T00:47:45.987Z,14.80
2022-12-25T00:50:14.059Z,13.10
2022-12-25T00:52:42.100Z,11.70
2022-12-25T00:55:10.407Z,10.10
2022-12-25T00:57:38.238Z,9.30
2022-12-25T01:00:07.134Z,12.40
2022-12-25T01:02:35.166Z,12.40
2022-12-25T01:05:04.952Z,10.20
2022-12-25T01:07:33.327Z,11.50
2022-12-25T01:10:20.137Z,11.50
2022-12-25T01:12:48.480Z,11.80
2022-12-25T01:15:16.589Z,10.50
2022-12-25T01:17:44.972Z,11.90
2022-12-25T01:20:15.485Z,9.90
2022-12-25T01:22:45.056Z,8.50
2022-12-25T01:25:13.566Z,10.50
2022-12-25T01:27:42.154Z,12.00
2022-12-25T01:30:10.914Z,10.10
2022-12-25T01:32:38.949Z,10.50
2022-12-25T01:35:07.326Z,9.30
2022-12-25T01:37:35.587Z,11.10
2022-12-25T01:40:04.541Z,9.50
2022-12-25T01:42:32.366Z,10.00
2022-12-25T01:45:36.334Z,8.70
2022-12-25T01:48:14.883Z,7.20
2022-12-25T01:50:47.449Z,9.30
2022-12-25T01:53:15.877Z,7.50
2022-12-25T01:55:47.864Z,8.00
2022-12-25T01:58:17.094Z,7.30
2022-12-25T02:00:45.714Z,7.70
2022-12-25T02:03:13.941Z,7.70
2022-12-25T02:05:42.177Z,8.50
2022-12-25T02:08:15.641Z,7.00
2022-12-25T02:10:44.879Z,6.80
2022-12-25T02:13:15.553Z,7.10
2022-12-25T02:16:01.694Z,6.20
2022-12-25T02:18:43.961Z,7.70
2022-12-25T02:21:36.361Z,7.70
2022-12-25T02:24:21.787Z,6.10
2022-12-25T02:27:21.803Z,10.30
2022-12-25T02:29:54.660Z,7.10
2022-12-25T02:32:51.595Z,7.20
2022-12-25T02:35:31.289Z,7.40
2022-12-25T02:38:07.237Z,8.60
2022-12-25T02:40:50.963Z,12.00
2022-12-25T02:43:50.285Z,7.90
2022-12-25T02:46:42.455Z,9.30
2022-12-25T02:49:33.594Z,8.80
2022-12-25T02:52:28.331Z,8.90
2022-12-25T02:55:21.486Z,10.10
2022-12-25T02:58:10.422Z,8.90
2022-12-25T03:01:02.121Z,9.00
2022-12-25T03:03:53.007Z,8.20
2022-12-25T03:06:42.970Z,7.20
2022-12-25T03:09:36.192Z,8.90
2022-12-25T03:12:33.048Z,8.80
2022-12-25T03:15:20.302Z,8.50
2022-12-25T03:17:48.486Z,10.50
2022-12-25T03:20:35.517Z,9.00
2022-12-25T03:23:23.422Z,9.20
2022-12-25T03:26:09.933Z,8.00
2022-12-25T03:28:37.800Z,7.20
2022-12-25T03:31:35.536Z,9.60
2022-12-25T03:34:40.439Z,8.10
2022-12-25T03:37:29.889Z,7.70
2022-12-25T03:40:34.707Z,7.60
2022-12-25T03:43:32.717Z,8.50
2022-12-25T03:46:27.329Z,7.40
2022-12-25T03:49:22.688Z,8.50
2022-12-25T03:52:11.676Z,9.40
2022-12-25T03:54:59.973Z,8.30
2022-12-25T03:57:46.502Z,9.00
2022-12-25T04:00:33.457Z,8.80
2022-12-25T04:03:19.844Z,8.00
2022-12-25T04:06:06.416Z,8.80
2022-12-25T04:08:53.028Z,7.10
2022-12-25T04:11:39.710Z,7.50
2022-12-25T04:14:26.345Z,6.60
2022-12-25T04:17:12.955Z,7.90
2022-12-25T04:19:59.354Z,8.60
2022-12-25T04:22:45.964Z,7.10
2022-12-25T04:25:32.590Z,9.20
2022-12-25T04:28:20.543Z,6.30
2022-12-25T04:31:07.423Z,7.00
2022-12-25T04:33:54.023Z,7.80
2022-12-25T04:36:22.007Z,9.10
2022-12-25T04:38:50.241Z,5.90
2022-12-25T04:41:18.231Z,6.40
2022-12-25T04:43:46.311Z,7.60
2022-12-25T04:46:14.290Z,8.70
2022-12-25T04:48:42.384Z,7.90
2022-12-25T04:51:15.239Z,9.10
2022-12-25T04:53:43.830Z,10.70
2022-12-25T04:56:12.243Z,7.50
2022-12-25T04:58:40.902Z,6.80
2022-12-25T05:01:09.475Z,7.70
2022-12-25T05:03:38.141Z,9.90
2022-12-25T05:06:07.305Z,8.10
2022-12-25T05:08:36.253Z,7.00
2022-12-25T05:11:09.446Z,7.10
2022-12-25T05:13:38.729Z,7.10
2022-12-25T05:16:14.693Z,6.60
2022-12-25T05:18:43.797Z,8.50
2022-12-25T05:21:12.684Z,6.60
2022-12-25T05:23:48.692Z,6.70
2022-12-25T05:26:20.581Z,6.30
2022-12-25T05:28:48.954Z,9.50
2022-12-25T05:31:17.210Z,4.40
2022-12-25T05:33:45.744Z,6.70
2022-12-25T05:36:14.534Z,9.70
2022-12-25T05:38:42.608Z,7.40
2022-12-25T05:41:10.654Z,6.90
2022-12-25T05:43:38.648Z,7.00
2022-12-25T05:46:08.197Z,7.70
2022-12-25T05:48:38.090Z,6.60
2022-12-25T05:51:08.720Z,6.10
2022-12-25T05:53:37.463Z,7.40
2022-12-25T05:56:07.430Z,6.10
2022-12-25T05:58:37.966Z,7.30
2022-12-25T06:01:19.366Z,8.00
2022-12-25T06:03:47.299Z,6.00
2022-12-25T06:06:15.792Z,6.10
2022-12-25T06:08:44.045Z,6.90
2022-12-25T06:11:14.267Z,9.30
2022-12-25T06:13:42.856Z,7.70
2022-12-25T06:16:12.233Z,9.50
2022-12-25T06:18:42.673Z,9.00
2022-12-25T06:21:12.803Z,7.30
2022-12-25T06:23:42.263Z,8.20
2022-12-25T06:26:14.833Z,7.70
2022-12-25T06:28:43.149Z,7.20
2022-12-25T06:31:23.163Z,7.70
2022-12-25T06:33:51.384Z,7.90
2022-12-25T06:36:26.017Z,6.70
2022-12-25T06:38:54.592Z,6.10
2022-12-25T06:41:25.017Z,7.90
2022-12-25T06:43:55.992Z,8.70
2022-12-25T06:46:26.265Z,7.30
2022-12-25T06:48:54.796Z,6.70
2022-12-25T06:51:24.987Z,9.90
2022-12-25T06:53:54.527Z,12.00
2022-12-25T06:56:27.938Z,8.30
2022-12-25T06:58:59.062Z,7.60
2022-12-25T07:01:31.186Z,8.40
2022-12-25T07:04:02.564Z,8.00
2022-12-25T07:06:30.472Z,10.10
2022-12-25T07:08:58.488Z,9.40
2022-12-25T07:11:26.463Z,11.60
2022-12-25T07:13:54.565Z,9.70
2022-12-25T07:16:23.218Z,11.60
2022-12-25T07:18:51.242Z,9.40
2022-12-25T07:21:20.791Z,9.30
2022-12-25T07:23:50.190Z,10.80
2022-12-25T07:26:18.783Z,8.70
2022-12-25T07:28:46.754Z,9.60
2022-12-25T07:31:16.334Z,8.20
2022-12-25T07:33:45.264Z,7.90
2022-12-25T07:36:14.457Z,7.80
2022-12-25T07:38:42.976Z,8.30
2022-12-25T07:41:13.072Z,7.90
2022-12-25T07:43:41.631Z,7.40
2022-12-25T07:46:10.781Z,9.60
2022-12-25T07:51:10.334Z,7.20
2022-12-25T07:53:39.245Z,9.40
2022-12-25T07:56:14.177Z,9.60
2022-12-25T07:58:43.075Z,6.50
2022-12-25T08:01:20.672Z,10.30
2022-12-25T08:03:51.664Z,10.60
2022-12-25T08:06:22.117Z,9.50
2022-12-25T08:08:50.008Z,10.80
2022-12-25T08:11:18.281Z,12.50
2022-12-25T08:13:46.563Z,11.10
2022-12-25T08:16:14.679Z,10.50
2022-12-25T08:18:43.745Z,11.20
2022-12-25T08:21:14.784Z,10.50
2022-12-25T08:23:45.671Z,12.90
2022-12-25T08:26:22.306Z,16.90
2022-12-25T08:28:51.070Z,33.50
2022-12-25T08:31:25.885Z,24.90
2022-12-25T08:33:56.879Z,15.40
2022-12-25T08:36:24.916Z,12.00
2022-12-25T08:39:00.280Z,9.00
2022-12-25T08:41:30.879Z,6.40
2022-12-25T08:43:59.058Z,12.50
2022-12-25T08:46:27.355Z,6.70
2022-12-25T08:48:56.970Z,6.90
2022-12-25T08:51:26.734Z,9.20
2022-12-25T08:53:59.419Z,8.90
2022-12-25T08:56:27.389Z,8.20
2022-12-25T08:58:55.403Z,9.50
2022-12-25T09:01:23.604Z,9.40
2022-12-25T09:03:51.868Z,8.40
2022-12-25T09:06:19.950Z,7.50
2022-12-25T09:08:49.549Z,7.40
2022-12-25T09:11:19.945Z,7.00
2022-12-25T09:13:48.922Z,8.30
2022-12-25T09:16:20.601Z,7.90
2022-12-25T09:18:49.663Z,6.80
2022-12-25T09:21:19.053Z,6.60
2022-12-25T09:23:47.650Z,7.60
2022-12-25T09:26:17.657Z,7.60
2022-12-25T09:28:51.205Z,6.90
2022-12-25T09:31:21.900Z,6.40
2022-12-25T09:33:51.191Z,7.20
2022-12-25T09:36:23.508Z,9.00
2022-12-25T09:38:52.050Z,7.90
2022-12-25T09:41:58.539Z,6.00
2022-12-25T09:44:33.977Z,5.80
2022-12-25T09:47:06.743Z,7.20
2022-12-25T09:49:56.218Z,9.40
2022-12-25T09:52:34.533Z,9.10
2022-12-25T09:55:14.825Z,7.60
2022-12-25T09:57:54.324Z,4.70
2022-12-25T10:00:27.076Z,5.80
2022-12-25T10:03:18.271Z,6.70
2022-12-25T10:06:08.281Z,5.40
2022-12-25T10:08:58.199Z,5.30
2022-12-25T10:11:44.994Z,6.30
2022-12-25T10:14:25.451Z,8.20
2022-12-25T10:17:35.730Z,6.80
2022-12-25T10:20:03.617Z,8.00
2022-12-25T10:23:02.318Z,5.20
2022-12-25T10:25:30.935Z,4.90
2022-12-25T10:28:04.342Z,5.00
2022-12-25T10:30:32.490Z,6.70
2022-12-25T10:33:00.420Z,5.60
2022-12-25T10:35:31.555Z,6.70
2022-12-25T10:38:11.310Z,5.00
2022-12-25T10:41:19.021Z,5.90
2022-12-25T10:43:50.986Z,5.70
2022-12-25T10:46:21.133Z,5.40
2022-12-25T10:48:52.954Z,6.10
2022-12-25T10:51:31.573Z,5.80
2022-12-25T10:54:01.650Z,5.90
2022-12-25T10:56:30.290Z,6.40
2022-12-25T10:59:06.065Z,5.70
2022-12-25T11:01:34.344Z,7.50
2022-12-25T11:04:02.821Z,7.70
2022-12-25T11:06:32.624Z,6.10
2022-12-25T11:09:02.811Z,8.00
2022-12-25T11:11:31.106Z,5.60
2022-12-25T11:14:02.657Z,7.00
2022-12-25T11:16:35.448Z,7.00
2022-12-25T11:19:21.549Z,6.70
2022-12-25T11:21:56.515Z,7.10
2022-12-25T11:24:33.241Z,7.30
2022-12-25T11:27:06.145Z,7.80
2022-12-25T11:29:46.676Z,6.20
2022-12-25T11:32:20.753Z,6.90
2022-12-25T11:34:49.667Z,6.20
2022-12-25T11:37:24.413Z,6.90
2022-12-25T11:39:52.335Z,5.30
2022-12-25T11:42:28.965Z,7.30
2022-12-25T11:45:13.761Z,6.00
2022-12-25T11:48:18.875Z,5.60
2022-12-25T11:51:00.194Z,5.90
2022-12-25T11:53:38.459Z,5.10
2022-12-25T11:56:09.504Z,7.10
2022-12-25T11:58:54.218Z,5.10
2022-12-25T12:01:47.242Z,6.50
2022-12-25T12:04:42.316Z,5.10
2022-12-25T12:07:32.507Z,11.20
2022-12-25T12:10:21.445Z,10.00
2022-12-25T12:15:31.032Z,9.90
2022-12-25T12:18:10.286Z,9.00
2022-12-25T12:20:38.767Z,9.60
2022-12-25T12:23:15.837Z,9.70
2022-12-25T12:25:45.538Z,10.00
2022-12-25T12:28:26.224Z,8.90
2022-12-25T12:31:04.521Z,12.40
2022-12-25T12:33:40.950Z,12.60
2022-12-25T12:36:14.208Z,13.30
2022-12-25T12:38:44.194Z,9.40
2022-12-25T12:41:14.859Z,13.80
2022-12-25T12:43:53.648Z,13.00
2022-12-25T12:46:31.585Z,11.90
2022-12-25T12:49:16.731Z,10.00
2022-12-25T12:51:44.696Z,7.90
2022-12-25T12:54:23.294Z,9.00
2022-12-25T12:57:21.246Z,13.50
2022-12-25T12:59:49.386Z,11.20
2022-12-25T13:02:49.108Z,11.20
2022-12-25T13:05:42.540Z,10.10
2022-12-25T13:11:40.338Z,10.10
2022-12-25T13:14:20.969Z,13.70
2022-12-25T13:16:52.603Z,12.80
2022-12-25T13:19:23.967Z,12.90
2022-12-25T13:22:04.040Z,10.50
2022-12-25T13:24:35.396Z,13.20
2022-12-25T13:27:33.873Z,14.80
2022-12-25T13:30:12.509Z,13.20
2022-12-25T13:32:41.977Z,13.00
2022-12-25T13:35:15.555Z,11.10
2022-12-25T13:37:44.393Z,13.20
2022-12-25T13:40:28.136Z,12.00
2022-12-25T13:43:00.536Z,12.10
2022-12-25T13:45:31.006Z,13.40
2022-12-25T13:48:10.278Z,11.90
2022-12-25T13:53:16.164Z,12.10
2022-12-25T13:55:50.176Z,12.00
2022-12-25T13:58:36.849Z,15.70
2022-12-25T14:01:05.583Z,14.10
2022-12-25T14:03:43.354Z,12.60
2022-12-25T14:06:31.019Z,12.60
2022-12-25T14:08:59.799Z,13.00
2022-12-25T14:11:31.016Z,15.10
2022-12-25T14:14:04.342Z,14.40
2022-12-25T14:16:33.558Z,11.70
2022-12-25T14:21:33.342Z,10.90
2022-12-25T14:24:01.540Z,11.90
2022-12-25T14:26:33.564Z,11.60
2022-12-25T14:29:18.101Z,11.70
2022-12-25T14:31:47.812Z,12.10
2022-12-25T14:34:22.694Z,9.70
2022-12-25T14:36:52.630Z,9.90
2022-12-25T14:39:26.789Z,11.60
2022-12-25T14:41:55.103Z,9.80
2022-12-25T14:44:40.281Z,11.70
2022-12-25T14:47:10.977Z,9.60
2022-12-25T14:49:39.659Z,10.40
2022-12-25T14:52:22.135Z,13.00
2022-12-25T14:54:55.692Z,11.60
2022-12-25T14:57:30.077Z,11.60
2022-12-25T15:00:01.456Z,8.20
2022-12-25T15:02:39.895Z,9.30
2022-12-25T15:05:40.901Z,8.10
2022-12-25T15:08:08.805Z,9.00
2022-12-25T15:13:27.959Z,9.90
2022-12-25T15:16:21.512Z,8.20
2022-12-25T15:18:51.325Z,9.10
2022-12-25T15:21:39.778Z,8.00
2022-12-25T15:24:13.181Z,10.00
2022-12-25T15:26:41.286Z,7.10
2022-12-25T15:29:09.236Z,8.10
2022-12-25T15:31:38.991Z,10.20
2022-12-25T15:34:16.853Z,8.70
2022-12-25T15:36:44.790Z,9.50
2022-12-25T15:39:13.004Z,8.70
2022-12-25T15:42:00.095Z,9.00
2022-12-25T15:44:28.420Z,9.00
2022-12-25T15:46:57.903Z,9.30
2022-12-25T15:49:25.782Z,12.20
2022-12-25T15:51:53.742Z,13.00
2022-12-25T15:54:21.795Z,9.90
2022-12-25T15:56:56.931Z,7.90
2022-12-25T15:59:24.821Z,7.10
2022-12-25T16:01:58.949Z,8.60
2022-12-25T16:04:28.981Z,10.90
2022-12-25T16:06:57.362Z,8.60
2022-12-25T16:09:26.523Z,11.40
2022-12-25T16:14:22.409Z,9.30
2022-12-25T16:16:50.570Z,10.60
2022-12-25T16:19:18.606Z,11.90
2022-12-25T16:21:47.268Z,10.80
2022-12-25T16:24:15.557Z,13.90
2022-12-25T16:26:43.588Z,12.90
2022-12-25T16:29:11.615Z,10.80
2022-12-25T16:31:40.468Z,10.80
2022-12-25T16:34:09.621Z,11.90
2022-12-25T16:36:38.392Z,12.40
2022-12-25T16:39:06.460Z,9.10
2022-12-25T16:41:34.617Z,12.00
2022-12-25T16:44:10.383Z,14.50
2022-12-25T16:46:40.122Z,13.10
2022-12-25T16:49:08.917Z,11.90
2022-12-25T16:51:37.226Z,12.70
2022-12-25T16:54:05.359Z,9.90
2022-12-25T16:56:33.414Z,12.90
2022-12-25T16:59:01.480Z,9.00
2022-12-25T17:01:29.738Z,9.20
2022-12-25T17:04:02.725Z,14.60
2022-12-25T17:06:30.962Z,8.80
2022-12-25T17:09:02.269Z,9.00
2022-12-25T17:11:30.975Z,8.50
2022-12-25T17:14:02.609Z,11.80
2022-12-25T17:16:34.259Z,10.90
2022-12-25T17:19:05.537Z,12.60
2022-12-25T17:21:35.008Z,13.50
2022-12-25T17:24:04.444Z,16.10
2022-12-25T17:26:33.938Z,10.30
2022-12-25T17:29:02.018Z,12.50
2022-12-25T17:31:30.053Z,12.10
2022-12-25T17:34:00.717Z,11.20
2022-12-25T17:36:29.903Z,14.80
2022-12-25T17:39:02.028Z,13.20
2022-12-25T17:41:30.247Z,18.10
2022-12-25T17:43:58.311Z,15.10
2022-12-25T17:46:28.492Z,13.90
2022-12-25T17:48:59.957Z,14.10
2022-12-25T17:51:30.438Z,13.80
2022-12-25T17:54:03.451Z,14.70
2022-12-25T17:56:32.782Z,18.10
2022-12-25T18:01:37.676Z,14.00
2022-12-25T18:04:06.611Z,14.20
2022-12-25T18:06:37.233Z,15.60
2022-12-25T18:09:06.424Z,13.60
2022-12-25T18:14:06.806Z,12.00
2022-12-25T18:16:38.535Z,14.80
2022-12-25T18:19:06.748Z,16.20
2022-12-25T18:21:35.241Z,15.50
2022-12-25T18:24:05.258Z,11.90
2022-12-25T18:26:33.927Z,15.70
2022-12-25T18:29:02.417Z,12.70
2022-12-25T18:31:30.478Z,12.70
2022-12-25T18:34:00.233Z,15.70
2022-12-25T18:36:30.008Z,18.00
2022-12-25T18:38:59.848Z,14.90
2022-12-25T18:41:28.842Z,14.60
2022-12-25T18:43:59.812Z,16.30
2022-12-25T18:46:28.368Z,12.80
2022-12-25T18:48:56.967Z,15.90
2022-12-25T18:51:27.735Z,14.40
2022-12-25T18:54:01.629Z,15.30
2022-12-25T18:56:29.486Z,14.00
2022-12-25T18:58:59.874Z,15.40
2022-12-25T19:01:28.162Z,15.40
2022-12-25T19:04:04.106Z,18.10
2022-12-25T19:06:33.646Z,15.10
2022-12-25T19:11:46.153Z,16.50
2022-12-25T19:14:15.691Z,15.80
2022-12-25T19:19:13.114Z,13.80
2022-12-25T19:21:41.907Z,15.70
2022-12-25T19:24:09.948Z,15.30
2022-12-25T19:26:38.101Z,13.70
2022-12-25T19:29:06.133Z,17.60
2022-12-25T19:31:34.219Z,14.60
2022-12-25T19:34:02.380Z,15.70
2022-12-25T19:36:31.258Z,13.80
2022-12-25T19:38:59.329Z,16.70
2022-12-25T19:41:27.406Z,23.10
2022-12-25T19:43:55.328Z,17.90
2022-12-25T19:46:29.086Z,16.10
2022-12-25T19:48:57.514Z,20.20
2022-12-25T19:51:28.681Z,23.00
2022-12-25T19:53:56.823Z,14.50
2022-12-25T19:56:26.817Z,14.30
2022-12-25T19:58:56.011Z,17.40
2022-12-25T20:01:26.195Z,18.20
2022-12-25T20:03:54.359Z,16.00
2022-12-25T20:06:26.267Z,16.70
2022-12-25T20:08:58.012Z,15.40
2022-12-25T20:11:28.807Z,14.10
2022-12-25T20:13:57.218Z,15.60
2022-12-25T20:16:25.777Z,15.20
2022-12-25T20:18:56.580Z,13.10
2022-12-25T20:21:27.301Z,14.00
2022-12-25T20:23:56.263Z,16.80
2022-12-25T20:26:29.337Z,14.20
2022-12-25T20:28:58.767Z,12.90
2022-12-25T20:31:30.476Z,14.20
2022-12-25T20:34:04.228Z,13.10
2022-12-25T20:36:36.816Z,12.60
2022-12-25T20:39:11.312Z,13.40
2022-12-25T20:41:39.863Z,12.20
2022-12-25T20:44:10.164Z,13.30
2022-12-25T20:46:38.683Z,11.90
2022-12-25T20:49:06.842Z,15.70
2022-12-25T20:51:34.902Z,13.90
2022-12-25T20:54:07.630Z,15.50
2022-12-25T20:56:36.475Z,13.90
2022-12-25T20:59:04.506Z,12.80
2022-12-25T21:01:32.959Z,21.10
2022-12-25T21:04:01.253Z,20.10
2022-12-25T21:06:29.768Z,18.70
2022-12-25T21:08:57.745Z,16.10
2022-12-25T21:11:25.943Z,14.60
2022-12-25T21:13:53.954Z,14.30
2022-12-25T21:16:22.737Z,14.60
2022-12-25T21:18:53.605Z,18.20
2022-12-25T21:21:22.733Z,17.00
2022-12-25T21:23:50.942Z,15.00
2022-12-25T21:26:25.061Z,14.40
2022-12-25T21:28:55.387Z,20.10
2022-12-25T21:31:24.471Z,16.60
2022-12-25T21:33:54.498Z,16.30
2022-12-25T21:36:26.816Z,15.50
2022-12-25T21:39:08.357Z,19.30
2022-12-25T21:41:38.668Z,15.90
2022-12-25T21:44:09.313Z,15.00
2022-12-25T21:46:37.238Z,19.20
2022-12-25T21:49:05.206Z,13.60
2022-12-25T21:51:53.499Z,14.10
2022-12-25T21:54:23.019Z,14.20
2022-12-25T21:56:51.008Z,14.10
2022-12-25T21:59:21.551Z,17.00
2022-12-25T22:01:51.300Z,15.10
2022-12-25T22:04:22.071Z,13.70
2022-12-25T22:07:09.612Z,18.30
2022-12-25T22:09:37.882Z,14.30
2022-12-25T22:12:30.278Z,16.20
2022-12-25T22:15:06.829Z,14.00
2022-12-25T22:18:01.885Z,14.90
2022-12-25T22:20:34.672Z,13.40
2022-12-25T22:23:03.738Z,14.10
2022-12-25T22:25:31.804Z,16.10
2022-12-25T22:27:59.801Z,19.00
2022-12-25T22:30:29.367Z,15.00
2022-12-25T22:32:57.785Z,11.70
2022-12-25T22:35:25.983Z,12.50
2022-12-25T22:37:54.358Z,9.80
2022-12-25T22:40:22.328Z,12.30
2022-12-25T22:42:54.056Z,12.10
2022-12-25T22:45:22.644Z,10.00
2022-12-25T22:47:50.612Z,13.00
2022-12-25T22:50:19.091Z,11.00
2022-12-25T22:52:47.181Z,10.00
2022-12-25T22:55:18.704Z,10.00
2022-12-25T22:57:46.860Z,13.50
2022-12-25T23:00:14.963Z,18.40
2022-12-25T23:02:43.134Z,18.70
2022-12-25T23:05:11.316Z,22.10
2022-12-25T23:07:39.218Z,17.50
2022-12-25T23:10:08.308Z,25.10
2022-12-25T23:12:54.848Z,28.30
2022-12-25T23:15:23.086Z,25.50
2022-12-25T23:18:09.613Z,21.00
2022-12-25T23:20:56.236Z,26.80
2022-12-25T23:23:42.886Z,25.50
2022-12-25T23:26:12.862Z,26.40
2022-12-25T23:29:01.895Z,34.00
2022-12-25T23:34:04.989Z,26.80
2022-12-25T23:36:34.160Z,24.60
2022-12-25T23:41:39.666Z,22.90
2022-12-25T23:44:09.132Z,20.30
2022-12-25T23:49:05.887Z,27.20
2022-12-25T23:51:39.232Z,31.50
2022-12-25T23:54:07.973Z,30.90
2022-12-25T23:56:36.779Z,29.10
2022-12-25T23:59:05.616Z,32.50
